パラオ国際空港の過去48時間の天気

パラオ国際空港 (Babelthuap Island, Babelthuap/Koror Airport)

現在時刻: 10/1 23:39 +09 (10/1 14:39 UTC) 以下の時間は現地時間です。

過去48時間のMETAR気象情報
時間 風向 風速(m/s) 視程 気温(℃) 湿度(%) 気圧(hPa) 天気現象
1 22:50 静穏 0 10km以上 24 94 1009
1 21:50 静穏 0 10km以上 25 94 1009
1 20:50 静穏 0 10km以上 25 94 1009
1 19:50 静穏 0 10km以上 25 94 1008
1 18:50 静穏 0 10km以上 25 94 1007
1 17:50 静穏 0 10km以上 25 94 1007
1 16:50 静穏 0 10km以上 26 89 1007
1 15:50 南南西 3 10km以上 25 94 1007 弱いしゅう雨
1 15:24 東南東 2 10km以上 25 89 1008 弱いしゅう雨
1 14:50 西北西 2 8050m 24 94 1008 しゅう雨
1 14:26 西南西 8 1600m 24 94 1008 強いしゅう雨
1 14:18 南西 7 6450m 25 89 1008 しゅう雨
1 13:50 東北東 2 10km以上 26 94 1008 弱いしゅう雨
1 12:55 北東 2 10km以上 25 94 1008 弱いしゅう雨
1 11:50 西北西 3 10km以上 25 94 1010 弱いしゅう雨
1 10:50 2 10km以上 26 89 1010 周辺でしゅう雨
1 10:30 北北東 2 10km以上 25 94 1010 弱いしゅう雨
1 09:50 南西 5 4850m 25 94 1010 強いしゅう雨
1 09:29 南西 3 4850m 27 89 1010 強いしゅう雨
1 08:50 3 10km以上 30 75 1010 周辺でしゅう雨
1 07:50 静穏 0 10km以上 27 89 1008
1 06:55 静穏 0 10km以上 26 89 1008
1 05:52 西 3 10km以上 25 89 1007
1 04:50 西 5 10km以上 25 94 1007 弱いしゅう雨
1 04:35 西 5 10km以上 26 89 1007 弱いしゅう雨
1 03:50 西北西 3 10km以上 26 89 1006
PTRO 011350Z 00000KT 14SM BKN015CB BKN110 BKN290 24/23 A2980 RMK CB ALQDS
PTRO 011250Z 00000KT 13SM BKN015CB BKN110 BKN290 25/24 A2980 RMK CB ALQDS
PTRO 011150Z 00000KT 13SM BKN015CB BKN110 BKN290 25/24 A2979 RMK CB ALQDS
PTRO 011050Z 00000KT 13SM BKN015CB BKN110 BKN290 25/24 A2978 RMK CB ALQDS
PTRO 010950Z 00000KT 13SM BKN015CB BKN110 OVC290 25/24 A2974 RMK CB ALQDS
PTRO 010850Z 00000KT 14SM BKN015CB BKN110 OVC290 25/24 A2974 RMK CB ALQDS
PTRO 010750Z 00000KT 14SM BKN014CB BKN110 OVC290 26/24 A2974 RMK CB ALQDS
PTRO 010650Z 20005KT 9SM -SHRA BKN014CB BKN110 OVC290 25/24 A2975 RMK CB OHD AND ALQDS
PTRO 010624Z 12003KT 8SM -SHRA BKN014CB BKN100 OVC280 25/23 A2978 RMK CB OHD AND ALQDS
PTRO 010550Z 29004KT 5SM SHRA FEW008 OVC014CB 24/23 A2978 RMK CB OHD AND ALQDS
PTRO 010526Z 25016G21KT 1SM +SHRA FEW008 OVC014CB 24/23 A2977 RMK CB OHD AND ALQDS
PTRO 010518Z 23013G21KT 4SM SHRA SCT008 BKN014CB OVC100 25/23 A2977 RMK CB OHD AND ALQDS
PTRO 010450Z 07004KT 9SM -SHRA BKN014CB BKN110 OVC290 26/25 A2976 RMK CB ALQDS
PTRO 010355Z 04003KT 8SM -SHRA BKN014CB BKN100 OVC280 25/24 A2977 RMK CB OHD AND ALQDS
PTRO 010250Z 29005KT 6SM -SHRA BKN014CB BKN100 OVC280 25/24 A2981 RMK CB OHD AND ALQDS
PTRO 010150Z 09003KT 12SM VCSH BKN014CB BKN110 OVC290 26/24 A2981 RMK VCSH W-NW CB OHD AND ALQDS
PTRO 010130Z 02003KT 7SM -SHRA BKN014CB BKN110 OVC290 25/24 A2983 RMK CB OHD AND ALQDS
PTRO 010050Z 23009G14KT 3SM +SHRA BKN014CB OVC100 25/24 A2983 RMK CB OHD AND ALQDS
PTRO 010029Z 22005KT 3SM +SHRA BKN014CB BKN110 OVC290 27/25 A2982 RMK CB OHD AND ALQDS
PTRO 302350Z 18005KT 12SM VCSH BKN015TCU BKN120 OVC300 30/25 A2981 RMK VCSH W TCU SW-W
PTRO 302250Z 00000KT 14SM SCT015CB BKN110 OVC290 27/25 A2978 RMK CB ALQDS
PTRO 302155Z 00000KT 13SM SCT015CB BKN110 OVC290 26/24 A2976 RMK CB ALQDS
PTRO 302052Z 28006KT 13SM BKN015CB BKN110 OVC290 25/23 A2974 RMK CB ALQDS
PTRO 301950Z 27010G15KT 8SM -SHRA OVC015CB 25/24 A2973 RMK CB ALQDS AND OHD
PTRO 301935Z 28010G15KT 8SM -SHRA OVC015CB 26/24 A2973 RMK CB ALQDS AND OHD
PTRO 301850Z 29005KT 14SM BKN015CB OVC290 26/24 A2972 RMK CB ALQDS